This demonstration page uses our WeatherBlox Daily Observations layout. Learn more.

38.89511, -77.03637

Hourly Observations for October 18, 2018

Temp ( °F °C ) Dew Point ( °F °C ) Humidity (%) Winds ( mph kmh ) Pressure ( in mb ) Visibility ( mi km ) Precip ( " mm )
12:52 am 00:52 Partly Cloudy 55 12.8 37 2.8 51 51 N 12 19 30.26 1025 10 16.0934 0 0
1:52 am 01:52 Mostly Cloudy 54 12.2 36 2.2 51 51 NNW 16 26 30.27 1025 10 16.0934 0 0
2:52 am 02:52 Partly Cloudy 53 11.7 33 0.6 47 47 NNW 14 22 30.3 1026 10 16.0934 0 0
3:52 am 03:52 Partly Cloudy 51 10.6 33 0.6 50 50 NNW 12 19 30.32 1027 10 16.0934 0 0
4:52 am 04:52 Mostly Cloudy 51 10.6 31 -0.6 46 46 NNW 13 20 30.35 1028 10 16.0934 0 0
5:52 am 05:52 Mostly Cloudy 50 10 28 -2.2 43 43 N 15 24 30.37 1028 10 16.0934 0 0
6:52 am 06:52 Partly Cloudy 49 9.4 28 -2.2 44 44 NNW 9 15 30.38 1029 10 16.0934 0 0
7:52 am 07:52 Partly Cloudy 49 9.4 28 -2.2 44 44 WNW 6 9 30.42 1030 10 16.0934 0 0
8:52 am 08:52 Sunny 51 10.6 29 -1.7 43 43 NNW 9 15 30.45 1031 10 16.0934 0 0
9:52 am 09:52 Mostly Sunny 52 11.1 28 -2.2 40 40 WNW 13 20 30.45 1031 10 16.0934 0 0
10:52 am 10:52 Mostly Sunny 53 11.7 29 -1.7 40 40 NNW 14 22 30.45 1031 10 16.0934 0 0
11:52 am 11:52 Mostly Sunny 56 13.3 31 -0.6 39 39 NW 14 22 30.45 1031 10 16.0934 0 0
12:52 pm 12:52 Mostly Sunny 55 12.8 30 -1.1 38 38 WNW 8 13 30.44 1031 10 16.0934 0 0
1:52 pm 13:52 Mostly Sunny 58 14.4 31 -0.6 36 36 NNW 15 24 30.42 1030 10 16.0934 0 0
2:52 pm 14:52 Mostly Sunny 58 14.4 31 -0.6 36 36 NNW 13 20 30.4 1030 10 16.0934 0 0
3:23 pm 15:23 Mostly Sunny 58 14.4 31 -0.6 36 36 NNW 15 24 30.39 1029 10 16.0934 0 0
3:52 pm 15:52 Mostly Sunny 59 15 32 0 36 36 NW 8 13 30.4 1029 10 16.0934 0 0
4:52 pm 16:52 Mostly Sunny 58 14.4 31 -0.6 36 36 NNW 8 13 30.39 1029 10 16.0934 0 0
5:52 pm 17:52 Mostly Sunny 56 13.3 31 -0.6 39 39 N 12 19 30.39 1029 10 16.0934 0 0
6:52 pm 18:52 Clear 55 12.8 31 -0.6 40 40 N 3 6 30.4 1030 10 16.0934 0 0
7:52 pm 19:52 Clear 55 12.8 32 0 42 42 W 5 7 30.41 1030 10 16.0934 0 0
8:52 pm 20:52 Clear 52 11.1 37 2.8 57 57 WSW 5 7 30.4 1030 10 16.0934 0 0
9:52 pm 21:52 Clear 50 10 37 2.8 61 61 W 6 9 30.4 1030 10 16.0934 0 0
10:52 pm 22:52 Clear 49 9.4 41 5 74 74 SSW 5 7 30.4 1030 10 16.0934 0 0
11:52 pm 23:52 Clear 48 8.9 38 3.3 68 68 SW 3 6 30.4 1030 10 16.0934 0 0

Powered by AerisWeather